Latest Weather Observations for Braidwood

IDN60801

Issued at 9:32 pm EST Monday 27 April 2015 (issued every 30 minutes, with the page automatically refreshed every 10 minutes)

About weather observations | Map of weather stations | Latest weather observations for NSW | Other Formats
Station Details ID: 069132 Name: BRAIDWOOD RACECOURSE AWS Lat: -35.43 Lon: 149.78 Height: 665.2 m
Data from the previous 72 hours. | See also: Recent months at Braidwood
Date/Time
EST
Temp
°C
App
Temp
°C
Dew
Point
Rel
Hum
%
Delta-T
°C
Wind Press
QNH
hPa
Press
MSL
hPa
Rain
since 9 am
mm
Dir
 
Spd
km/h
Gust
km/h
Spd
kts
Gust
kts
27/09:30pm 5.8 4.3 3.1 83 1.2 CALM 0 0 0 0 1023.5 1022.7 0.0
27/09:00pm 5.8 4.3 3.1 83 1.2 CALM 0 4 0 2 1023.3 1022.5 0.0
27/08:30pm 4.7 3.0 1.9 82 1.2 CALM 0 0 0 0 1023.2 1022.4 0.0
27/08:00pm 5.7 4.1 2.7 81 1.3 CALM 0 0 0 0 1022.9 1022.1 0.0
27/07:30pm 5.9 3.7 3.2 83 1.2 S 4 6 2 3 1022.4 1021.5 0.0
27/07:00pm 5.3 2.9 2.3 81 1.3 S 4 6 2 3 1022.0 1021.2 0.0
27/06:30pm 6.7 4.0 2.8 76 1.7 S 6 7 3 4 1021.5 1020.7 0.0
27/06:00pm 7.2 4.4 2.3 71 2.1 SSE 6 7 3 4 1021.1 1020.2 0.0
27/05:30pm 8.5 5.5 2.1 64 2.8 S 7 7 4 4 1020.8 1019.9 0.0
27/05:00pm 10.9 7.3 2.7 57 3.7 S 11 15 6 8 1020.3 1019.5 0.0
27/04:30pm 12.4 8.4 2.6 51 4.4 SSE 13 17 7 9 1020.0 1019.1 0.0
27/04:00pm 13.4 9.4 2.9 49 4.8 SSW 13 17 7 9 1019.8 1018.9 0.0
27/03:30pm 13.8 9.7 2.4 46 5.2 SSW 13 22 7 12 1019.6 1018.7 0.0
27/03:00pm 13.8 9.7 2.1 45 5.3 SW 13 19 7 10 1019.4 1018.5 0.0
27/02:30pm 13.8 9.2 1.5 43 5.5 SSW 15 22 8 12 1019.2 1018.3 0.0
27/02:00pm 13.5 8.7 2.4 47 5.1 SSW 17 24 9 13 1019.0 1018.1 0.0
27/01:30pm 13.8 9.6 1.8 44 5.4 SSW 13 22 7 12 1018.8 1018.0 0.0
27/01:00pm 13.7 9.3 2.6 47 5.1 SW 15 22 8 12 1018.6 1017.7 0.0
27/12:30pm 14.1 10.0 2.0 44 5.5 WSW 13 24 7 13 1018.7 1017.8 0.0
27/12:00pm 13.5 9.6 1.2 43 5.5 SSW 11 22 6 12 1019.2 1018.3 0.0
27/11:30am 13.5 10.7 3.3 50 4.7 SW 7 19 4 10 1019.3 1018.4 0.0
27/11:00am 12.7 9.9 2.0 48 4.8 WSW 6 19 3 10 1019.5 1018.6 0.0
27/10:30am 12.8 9.4 4.0 55 4.1 SW 11 17 6 9 1019.4 1018.5 0.0
27/10:00am 11.7 8.2 3.5 57 3.8 SW 11 17 6 9 1019.4 1018.5 0.0
27/09:30am 10.8 9.4 3.6 61 3.3 CALM 0 2 0 1 1019.4 1018.5 0.0
27/09:00am 9.0 6.7 2.6 64 2.8 W 4 6 2 3 1019.4 1018.5 0.0
27/08:30am 8.0 5.7 2.5 68 2.4 NW 4 6 2 3 1019.3 1018.4 0.0
27/08:00am 5.8 4.1 2.1 77 1.6 CALM 0 0 0 0 1019.0 1018.1 0.0
27/07:30am 3.4 1.6 1.4 87 0.8 CALM 0 0 0 0 1018.5 1017.6 0.0
27/07:00am 2.2 0.4 1.0 92 0.5 CALM 0 0 0 0 1018.3 1017.4 0.0
27/06:30am -0.5 -2.8 -2.5 86 0.7 CALM 0 0 0 0 1018.1 1017.2 0.0
27/06:00am 2.1 0.2 0.5 89 0.6 CALM 0 0 0 0 1017.7 1016.8 0.0
27/05:30am 0.1 -2.1 -1.8 87 0.7 CALM 0 0 0 0 1017.7 1016.8 0.0
27/05:00am 1.4 -0.7 -0.7 86 0.8 CALM 0 0 0 0 1017.5 1016.5 0.0
27/04:30am 3.1 0.4 0.2 81 1.1 W 4 7 2 4 1017.2 1016.3 0.0
27/04:00am 1.5 -0.6 -0.9 84 0.9 CALM 0 0 0 0 1017.1 1016.2 0.0
27/03:30am 2.4 0.3 -0.7 80 1.2 CALM 0 6 0 3 1017.0 1016.1 0.0
27/03:00am 3.7 0.5 0.8 81 1.2 W 7 9 4 5 1016.8 1015.9 0.0
27/02:30am 3.6 0.2 -0.4 75 1.6 WSW 7 9 4 5 1016.7 1015.8 0.0
27/02:00am 5.0 1.7 0.2 71 1.9 WSW 7 9 4 5 1016.8 1015.9 0.0
27/01:30am 6.0 2.9 1.2 71 2.0 SW 7 13 4 7 1016.8 1015.9 0.0
27/01:00am 5.4 3.3 1.5 76 1.6 WNW 2 7 1 4 1016.7 1015.8 0.0
27/12:30am 4.8 3.0 1.3 78 1.4 CALM 0 0 0 0 1016.7 1015.8 0.0
27/12:00am 4.5 2.7 1.5 81 1.2 CALM 0 0 0 0 1016.7 1015.8 0.0
 
Date/Time
EST
Temp
°C
App
Temp
°C
Dew
Point
Rel
Hum
%
Delta-T
°C
Wind Press
QNH
hPa
Press
MSL
hPa
Rain
since 9 am
mm
Dir
 
Spd
km/h
Gust
km/h
Spd
kts
Gust
kts
26/11:30pm 5.5 3.0 1.4 75 1.7 SW 4 7 2 4 1016.7 1015.8 0.0
26/11:00pm 6.6 3.8 2.1 73 1.9 NW 6 7 3 4 1016.8 1015.9 0.0
26/10:30pm 6.7 3.9 2.0 72 2.0 SW 6 9 3 5 1016.9 1016.0 0.0
26/10:00pm 7.3 4.0 2.4 71 2.1 SW 9 13 5 7 1016.8 1015.9 0.0
26/09:30pm 7.2 4.6 3.1 75 1.8 SW 6 11 3 6 1016.7 1015.8 0.0
26/09:00pm 6.8 3.7 3.6 80 1.4 ESE 9 13 5 7 1016.7 1015.8 0.0
26/08:30pm 8.6 6.2 4.4 75 1.9 SSE 6 11 3 6 1016.4 1015.5 0.0
26/08:00pm 9.3 5.7 4.9 74 2.0 SSW 13 20 7 11 1016.0 1015.0 0.0
26/07:30pm 10.2 7.2 6.0 75 2.0 S 11 20 6 11 1015.4 1014.5 0.0
26/07:00pm 10.4 8.1 5.8 73 2.2 SW 7 11 4 6 1015.1 1014.2 0.0
26/06:30pm 10.4 7.7 5.6 72 2.3 SW 9 11 5 6 1014.7 1013.7 0.0
26/06:00pm 11.8 10.1 5.9 67 2.9 SW 4 6 2 3 1014.4 1013.4 0.0
26/05:30pm 12.9 10.7 6.3 64 3.3 SW 7 11 4 6 1013.9 1013.0 0.0
26/05:00pm 13.4 10.4 5.8 60 3.7 SW 11 17 6 9 1013.7 1012.8 0.0
26/04:30pm 13.9 10.4 5.5 57 4.1 SW 13 19 7 10 1013.2 1012.2 0.0
26/04:00pm 14.0 10.2 5.9 58 4.0 SSW 15 22 8 12 1013.0 1012.0 0.0
26/03:30pm 14.5 9.9 5.8 56 4.3 SW 19 28 10 15 1012.8 1011.8 0.0
26/03:00pm 15.4 11.0 6.7 56 4.4 SW 19 30 10 16 1012.2 1011.2 0.0
26/02:30pm 14.6 10.7 7.2 61 3.8 SSW 17 32 9 17 1012.0 1011.0 0.0
26/02:00pm 15.4 11.1 7.7 60 4.0 SW 20 35 11 19 1011.6 1010.6 0.0
26/01:30pm 14.8 12.2 7.6 62 3.7 SSW 11 19 6 10 1011.4 1010.4 0.0
26/01:00pm 14.8 11.6 8.3 65 3.4 SSE 15 20 8 11 1011.1 1010.1 0.0
26/12:30pm 14.6 10.9 8.1 65 3.4 SSE 17 22 9 12 1010.8 1009.8 0.0
26/12:00pm 14.0 9.9 8.0 67 3.1 S 19 30 10 16 1011.0 1009.9 0.0
26/11:30am 13.1 9.2 7.1 67 3.0 SSW 17 24 9 13 1011.1 1010.1 0.0
26/11:00am 13.3 8.2 7.7 69 2.9 SSW 24 32 13 17 1011.2 1010.2 0.0
26/10:30am 13.2 8.8 7.6 69 2.8 SSW 20 35 11 19 1011.1 1010.1 0.0
26/10:00am 12.3 7.9 7.6 73 2.4 SSW 20 32 11 17 1010.7 1009.7 0.0
26/09:30am 11.9 9.0 8.2 78 1.9 SSW 13 20 7 11 1010.5 1009.5 0.0
26/09:00am 11.0 8.3 7.5 79 1.8 SW 11 17 6 9 1010.3 1009.3 12.8
26/08:30am 10.1 7.4 7.5 84 1.3 SW 11 19 6 10 1010.2 1009.2 12.8
26/08:00am 9.2 6.4 6.8 85 1.2 SSW 11 15 6 8 1009.9 1008.9 12.8
26/07:30am 9.1 6.2 6.7 85 1.2 SSW 11 17 6 9 1009.8 1008.8 12.2
26/07:00am 7.2 5.3 6.5 95 0.3 WNW 6 7 3 4 1009.2 1008.2 12.2
26/06:30am 6.9 5.6 6.0 94 0.4 NW 2 7 1 4 1008.9 1007.9 12.2
26/06:00am 7.0 6.1 6.1 94 0.4 CALM 0 0 0 0 1008.8 1007.8 12.2
26/05:30am 7.4 6.5 6.2 92 0.6 CALM 0 0 0 0 1008.5 1007.5 12.0
26/05:00am 7.3 5.2 5.9 91 0.7 WSW 6 7 3 4 1008.6 1007.6 11.8
26/04:30am 6.8 4.5 5.6 92 0.6 W 7 9 4 5 1008.3 1007.2 11.6
26/04:00am 6.9 4.2 5.7 92 0.6 W 9 11 5 6 1008.1 1007.0 11.6
26/03:30am 5.6 3.3 4.9 95 0.3 WNW 6 11 3 6 1008.1 1007.0 11.6
26/03:00am 5.7 3.8 5.0 95 0.3 NNW 4 6 2 3 1008.3 1007.2 11.6
26/02:30am 5.4 3.4 4.5 94 0.4 NW 4 6 2 3 1008.4 1007.4 11.6
26/02:00am 5.8 3.9 4.9 94 0.4 WSW 4 6 2 3 1008.6 1007.6 11.6
26/01:30am 5.7 3.8 5.0 95 0.3 SW 4 7 2 4 1008.5 1007.5 11.6
26/01:00am 5.0 3.7 4.3 95 0.3 CALM 0 0 0 0 1008.5 1007.5 11.4
26/12:30am 4.7 3.4 4.0 95 0.3 CALM 0 0 0 0 1008.6 1007.6 11.4
26/12:00am 5.3 3.7 4.4 94 0.4 S 2 4 1 2 1008.7 1007.7 11.4
 
Date/Time
EST
Temp
°C
App
Temp
°C
Dew
Point
Rel
Hum
%
Delta-T
°C
Wind Press
QNH
hPa
Press
MSL
hPa
Rain
since 9 am
mm
Dir
 
Spd
km/h
Gust
km/h
Spd
kts
Gust
kts
25/11:30pm 5.3 3.7 4.4 94 0.4 NNW 2 6 1 3 1008.6 1007.6 11.4
25/11:00pm 6.3 5.3 5.6 95 0.3 CALM 0 0 0 0 1009.0 1008.0 11.4
25/10:30pm 6.6 4.4 5.4 92 0.6 S 6 9 3 5 1009.2 1008.2 11.4
25/10:00pm 7.7 7.0 6.8 94 0.4 CALM 0 0 0 0 1009.6 1008.5 11.4
25/09:30pm 7.7 7.0 6.8 94 0.4 CALM 0 0 0 0 1009.8 1008.8 11.4
25/09:00pm 7.9 6.5 7.1 95 0.4 N 4 6 2 3 1009.6 1008.5 11.4
25/08:30pm 7.5 5.6 6.8 95 0.3 SE 6 9 3 5 1009.0 1008.0 11.4
25/08:00pm 7.4 6.7 6.8 96 0.3 CALM 0 0 0 0 1008.9 1007.9 11.4
25/07:30pm 6.8 5.9 5.9 94 0.4 CALM 0 0 0 0 1008.8 1007.8 11.4
25/07:00pm 7.3 6.5 6.4 94 0.4 CALM 0 0 0 0 1008.5 1007.5 11.4
25/06:30pm 7.9 7.2 7.0 94 0.4 CALM 0 0 0 0 1008.1 1007.0 11.4
25/06:00pm 8.3 7.6 7.1 92 0.6 CALM 0 0 0 0 1008.0 1006.9 11.2
25/05:30pm 8.5 7.9 7.6 94 0.4 CALM 0 0 0 0 1007.9 1006.8 11.2
25/05:00pm 8.6 8.1 7.7 94 0.4 CALM 0 4 0 2 1008.3 1007.2 11.2
25/04:30pm 8.5 6.6 7.4 93 0.5 W 7 9 4 5 1007.6 1006.6 10.6
25/04:00pm 8.8 7.1 7.4 91 0.7 WNW 6 13 3 7 1008.2 1007.1 10.0
25/03:30pm 8.8 6.8 7.3 90 0.7 SSE 7 9 4 5 1007.4 1006.4 9.8
25/03:00pm 8.8 7.7 6.8 87 1.0 N 2 6 1 3 1008.7 1007.7 9.2
25/02:31pm 8.5 2.1 5.3 80 1.5 WNW 28 46 15 25 1007.8 1006.7 7.8
25/02:30pm 8.1 1.3 4.9 80 1.5 WNW 30 46 16 25 1007.9 1006.8 7.4
25/02:21pm 11.5 7.4 6.2 70 2.6 NNE 17 46 9 25 1007.9 1006.8 4.4
25/02:00pm 10.4 8.1 7.6 83 1.4 WNW 9 22 5 12 1007.4 1006.4 3.8
25/01:30pm 14.7 12.9 9.5 71 2.8 ENE 9 13 5 7 1006.5 1005.4 0.0
25/01:00pm 16.5 15.0 6.6 52 5.1 NNE 4 6 2 3 1007.0 1005.9 0.0
25/12:30pm 17.2 16.6 7.3 52 5.1 CALM 0 4 0 2 1007.4 1006.4 0.0
25/12:00pm 17.1 16.3 6.6 50 5.4 CALM 0 0 0 0 1007.9 1006.8 0.0
25/11:30am 17.2 16.4 6.4 49 5.5 CALM 0 2 0 1 1008.4 1007.4 0.0
25/11:00am 16.3 15.8 8.0 58 4.3 CALM 0 0 0 0 1008.7 1007.7 0.0
25/10:30am 15.1 14.4 6.9 58 4.2 CALM 0 0 0 0 1008.9 1007.9 0.0
25/10:00am 14.8 14.5 8.5 66 3.3 CALM 0 0 0 0 1009.1 1008.1 0.0
25/09:30am 13.4 12.4 7.4 67 3.0 NW 2 6 1 3 1009.4 1008.3 0.0
25/09:00am 12.9 12.4 8.0 72 2.5 CALM 0 0 0 0 1009.5 1008.4 0.0
25/08:30am 11.8 11.7 9.4 85 1.3 CALM 0 0 0 0 1009.5 1008.4 0.0
25/08:00am 9.5 9.0 7.9 90 0.8 CALM 0 0 0 0 1009.4 1008.3 0.0
25/07:30am 8.0 7.3 7.1 94 0.4 CALM 0 0 0 0 1009.0 1008.0 0.0
25/07:00am 5.5 4.3 4.6 94 0.4 CALM 0 0 0 0 1008.9 1007.9 0.0
25/06:30am 5.3 3.9 3.8 90 0.7 CALM 0 0 0 0 1008.7 1007.7 0.0
25/06:00am 6.2 4.9 3.9 85 1.0 CALM 0 0 0 0 1008.3 1007.2 0.0
25/05:30am 8.6 5.3 6.4 86 1.1 WNW 13 15 7 8 1008.0 1006.9 0.0
25/05:00am 6.2 5.1 5.3 94 0.4 CALM 0 0 0 0 1008.1 1007.0 0.0
25/04:30am 6.7 5.7 5.8 94 0.4 CALM 0 0 0 0 1007.9 1006.8 0.0
25/04:00am 6.7 5.8 6.0 95 0.3 CALM 0 0 0 0 1007.5 1006.5 0.0
25/03:30am 7.1 6.2 6.0 93 0.5 CALM 0 0 0 0 1007.4 1006.4 0.0
25/03:00am 7.4 6.5 6.0 91 0.7 CALM 0 0 0 0 1007.6 1006.6 0.0
25/02:30am 8.2 7.1 7.1 93 0.5 NNE 2 7 1 4 1007.8 1006.7 0.0
25/02:00am 8.4 6.5 6.7 89 0.8 NW 6 7 3 4 1008.0 1006.9 0.0
25/01:30am 8.6 7.5 6.9 89 0.8 WNW 2 6 1 3 1008.2 1007.1 0.0
25/01:00am 8.5 7.8 7.0 90 0.7 CALM 0 4 0 2 1008.3 1007.2 0.0
25/12:30am 8.8 8.2 7.6 92 0.6 CALM 0 6 0 3 1008.3 1007.2 0.0
25/12:00am 8.9 8.3 7.5 91 0.7 CALM 0 0 0 0 1008.3 1007.2 0.0
 
Date/Time
EST
Temp
°C
App
Temp
°C
Dew
Point
Rel
Hum
%
Delta-T
°C
Wind Press
QNH
hPa
Press
MSL
hPa
Rain
since 9 am
mm
Dir
 
Spd
km/h
Gust
km/h
Spd
kts
Gust
kts
24/11:30pm 8.7 7.7 7.5 92 0.6 WNW 2 7 1 4 1008.4 1007.4 0.0
24/11:00pm 8.5 6.9 6.5 87 1.0 W 4 6 2 3 1008.3 1007.2 0.0
24/10:30pm 9.9 9.4 7.8 87 1.0 CALM 0 0 0 0 1008.2 1007.1 0.0
24/10:00pm 11.1 9.5 8.8 86 1.2 NW 7 9 4 5 1008.3 1007.2 0.0

Other Formats:

Comma delimited format used in spreadsheet applications
http://www.bom.gov.au/fwo/IDN60801/IDN60801.94927.axf

JavaScript Object Notation format (JSON) in row-major order
http://www.bom.gov.au/fwo/IDN60801/IDN60801.94927.json